Time;durP1;ratioP1;P1;durP2;ratioP2;P2;SDS_P1;SDS_P2;PMS_P1;PMS_P2;Temp;Humidity;BMP_temperature;BMP_pressure;BME280_temperature;BME280_humidity;BME280_pressure;Samples;Min_cycle;Max_cycle;Signal;HPM_P1;HPM_P2
2022/02/08 00:00:15;;;;;;;33.38;16.50;;;;;;;1.86;77.91;97650.84;5014517;28;20507;-61
2022/02/08 00:02:42;;;;;;;34.00;16.75;;;;;;;1.86;77.25;97648.25;5032367;28;20107;-59
2022/02/08 00:05:10;;;;;;;40.30;19.27;;;;;;;1.87;77.85;97647.22;5014844;28;20072;-60
2022/02/08 00:07:36;;;;;;;31.27;15.32;;;;;;;1.88;77.71;97648.78;5032501;28;20037;-60
2022/02/08 00:10:03;;;;;;;31.98;16.00;;;;;;;1.84;78.14;97642.44;5014517;28;20041;-60
2022/02/08 00:12:29;;;;;;;33.08;16.58;;;;;;;1.84;77.95;97647.66;5032583;28;20490;-61
2022/02/08 00:14:55;;;;;;;31.35;15.75;;;;;;;1.90;77.62;97662.44;5031389;28;20049;-60
2022/02/08 00:17:20;;;;;;;30.02;15.05;;;;;;;1.93;77.82;97666.44;5030104;28;20041;-61
2022/02/08 00:19:46;;;;;;;30.95;15.98;;;;;;;1.92;77.77;97665.63;5049133;28;20059;-60
2022/02/08 00:22:12;;;;;;;36.78;16.90;;;;;;;1.80;78.39;97662.19;5037943;28;20053;-61
2022/02/08 00:24:38;;;;;;;35.28;17.98;;;;;;;1.77;78.45;97666.06;5032184;28;20041;-60
2022/02/08 00:27:05;;;;;;;34.08;16.45;;;;;;;1.82;78.13;97667.97;5031802;28;20120;-61
2022/02/08 00:29:31;;;;;;;39.92;17.52;;;;;;;1.73;78.57;97662.28;5032032;28;20053;-60
2022/02/08 00:31:57;;;;;;;37.67;18.10;;;;;;;1.77;78.86;97666.06;5030862;28;20655;-61
2022/02/08 00:34:23;;;;;;;35.63;16.50;;;;;;;1.76;78.12;97671.47;5032250;28;20053;-60
2022/02/08 00:36:48;;;;;;;33.92;16.23;;;;;;;1.81;78.97;97682.88;5030535;28;20482;-61
2022/02/08 00:39:14;;;;;;;35.30;17.88;;;;;;;1.84;78.80;97680.84;5031893;28;20048;-59
2022/02/08 00:41:40;;;;;;;36.30;16.48;;;;;;;1.94;77.82;97678.47;5013960;28;20041;-61
2022/02/08 00:44:12;;;;;;;31.92;15.63;;;;;;;2.00;77.84;97683.63;5031834;28;20072;-60
2022/02/08 00:46:45;;;;;;;32.35;16.73;;;;;;;1.98;77.95;97690.88;5030502;28;20271;-61
2022/02/08 00:49:13;;;;;;;35.78;15.98;;;;;;;1.95;77.79;97682.69;5013934;28;20414;-58
2022/02/08 00:51:50;;;;;;;36.63;17.05;;;;;;;1.88;78.59;97690.59;4998075;28;20541;-61
2022/02/08 00:54:17;;;;;;;30.70;15.90;;;;;;;2.03;78.16;97690.22;5014002;28;20087;-60
2022/02/08 00:56:44;;;;;;;33.50;16.75;;;;;;;2.17;77.99;97694.19;5030354;28;20098;-61
2022/02/08 00:59:10;;;;;;;32.33;15.93;;;;;;;2.13;77.21;97695.69;5030422;28;20041;-60
2022/02/08 01:01:38;;;;;;;32.55;15.70;;;;;;;2.07;77.52;97699.19;5031213;28;20060;-59
2022/02/08 01:04:05;;;;;;;36.05;16.77;;;;;;;2.10;77.27;97698.75;5030278;28;20049;-60
2022/02/08 01:06:31;;;;;;;34.78;16.98;;;;;;;2.09;77.39;97705.00;5013924;28;20034;-61
2022/02/08 01:09:09;;;;;;;31.52;15.27;;;;;;;2.11;77.02;97705.56;5013638;28;20044;-59
2022/02/08 01:11:35;;;;;;;29.08;15.07;;;;;;;2.15;77.07;97708.53;5015012;28;20486;-61
2022/02/08 01:14:00;;;;;;;27.98;15.05;;;;;;;2.14;76.98;97709.53;5030097;28;20056;-59
2022/02/08 01:16:26;;;;;;;28.90;14.13;;;;;;;2.00;77.24;97712.38;5031363;28;20091;-60
2022/02/08 01:18:55;;;;;;;27.38;14.18;;;;;;;2.03;77.68;97711.91;5030138;28;20041;-60
2022/02/08 01:21:22;;;;;;;28.55;14.23;;;;;;;2.09;77.04;97715.47;5029869;28;20053;-60
2022/02/08 01:23:48;;;;;;;24.13;12.35;;;;;;;2.13;76.81;97719.22;5030098;28;20041;-60
2022/02/08 01:26:16;;;;;;;26.58;13.15;;;;;;;2.15;76.75;97724.22;5029671;28;20516;-61
2022/02/08 01:31:38;;;;;;;24.63;13.10;;;;;;;2.08;77.55;97715.66;5030849;28;20045;-60
2022/02/08 01:34:13;;;;;;;30.73;13.75;;;;;;;2.24;77.10;97715.03;5030122;28;20060;-60
2022/02/08 01:39:16;;;;;;;27.13;13.15;;;;;;;2.22;76.58;97720.47;5030978;28;20611;-60
2022/02/08 01:47:26;;;;;;;27.70;13.82;;;;;;;2.15;76.55;97730.25;5029894;28;20096;-60
2022/02/08 01:52:47;;;;;;;30.27;14.10;;;;;;;2.09;77.21;97733.75;5029904;28;20107;-61
2022/02/08 01:55:21;;;;;;;27.38;13.73;;;;;;;2.19;77.43;97743.66;5029630;28;20060;-60
2022/02/08 01:57:47;;;;;;;31.20;14.68;;;;;;;2.25;77.28;97748.78;5013066;28;20119;-59
2022/02/08 02:00:16;;;;;;;27.90;14.70;;;;;;;2.34;76.79;97751.09;5029529;28;20064;-60
2022/02/08 02:02:46;;;;;;;31.17;14.23;;;;;;;2.26;76.73;97746.97;5031346;28;20124;-59
2022/02/08 02:05:19;;;;;;;31.17;14.40;;;;;;;2.20;76.45;97746.03;5014404;28;20049;-59
2022/02/08 02:07:49;;;;;;;27.98;14.20;;;;;;;2.25;76.87;97750.59;5013350;28;20395;-61
2022/02/08 02:10:19;;;;;;;30.50;15.68;;;;;;;2.30;76.96;97755.19;5029900;28;20049;-60
2022/02/08 02:13:01;;;;;;;28.20;14.10;;;;;;;2.32;76.55;97753.91;5043177;28;20099;-61
2022/02/08 02:15:34;;;;;;;27.77;14.05;;;;;;;2.19;76.94;97748.88;5049653;28;20049;-60
2022/02/08 02:18:01;;;;;;;28.50;14.15;;;;;;;2.23;77.17;97765.72;5049573;28;20120;-62
2022/02/08 02:20:30;;;;;;;27.70;14.05;;;;;;;2.17;76.94;97766.59;5042569;28;20048;-61
2022/02/08 02:22:56;;;;;;;31.35;15.23;;;;;;;2.19;77.08;97765.38;5029668;28;20134;-60
2022/02/08 02:25:23;;;;;;;27.25;13.60;;;;;;;2.32;77.02;97766.97;5029637;28;20101;-59
2022/02/08 02:27:54;;;;;;;24.95;13.30;;;;;;;2.37;76.18;97769.72;5013045;28;20042;-61
2022/02/08 02:30:20;;;;;;;26.75;13.48;;;;;;;2.34;76.59;97769.38;5029663;28;20049;-60
2022/02/08 02:32:46;;;;;;;30.67;14.55;;;;;;;2.23;77.20;97765.72;5029564;28;20081;-61
2022/02/08 02:35:12;;;;;;;32.67;14.35;;;;;;;2.30;76.40;97778.72;5029687;28;20124;-60
2022/02/08 02:37:38;;;;;;;28.75;13.18;;;;;;;2.35;77.42;97778.81;5030743;28;20467;-62
2022/02/08 02:40:05;;;;;;;28.23;14.50;;;;;;;2.33;76.91;97778.25;5030834;28;20045;-61
2022/02/08 02:42:33;;;;;;;30.75;13.68;;;;;;;2.31;77.02;97773.25;5033020;28;20049;-61
2022/02/08 02:45:05;;;;;;;30.83;15.13;;;;;;;2.42;77.45;97780.31;5033137;28;20045;-60
2022/02/08 02:47:31;;;;;;;26.15;13.07;;;;;;;2.40;77.05;97777.13;5034239;28;20049;-62
2022/02/08 02:49:56;;;;;;;31.30;13.88;;;;;;;2.33;76.81;97779.06;5016471;28;20051;-60
2022/02/08 02:52:23;;;;;;;31.17;13.98;;;;;;;2.37;76.54;97772.34;5032834;28;20588;-60
2022/02/08 02:54:54;;;;;;;30.38;14.07;;;;;;;2.34;76.37;97782.47;5032801;28;20570;-62
2022/02/08 02:57:24;;;;;;;25.77;14.18;;;;;;;2.37;76.07;97787.25;5032743;28;20095;-61
2022/02/08 02:59:59;;;;;;;28.20;14.63;;;;;;;2.29;76.29;97783.13;5032259;28;20545;-61
2022/02/08 03:02:37;;;;;;;25.95;12.43;;;;;;;2.29;76.50;97780.50;5032580;28;20601;-61
2022/02/08 03:05:21;;;;;;;28.05;14.52;;;;;;;2.36;76.77;97775.19;5034037;28;20053;-60
2022/02/08 03:18:48;;;;;;;28.35;13.32;;;;;;;2.16;77.19;97794.56;5015714;28;20041;-60
2022/02/08 03:21:14;;;;;;;23.35;12.32;;;;;;;2.19;77.68;97806.41;5032310;28;20128;-60
2022/02/08 03:23:40;;;;;;;25.02;13.38;;;;;;;2.18;77.87;97813.44;5033514;28;20617;-61
2022/02/08 03:26:07;;;;;;;25.27;12.68;;;;;;;2.11;76.43;97819.78;5015688;28;20083;-61
2022/02/08 03:28:39;;;;;;;27.88;12.98;;;;;;;2.11;76.46;97810.09;5016603;28;20045;-60
2022/02/08 03:31:10;;;;;;;24.52;12.50;;;;;;;2.20;77.29;97824.47;5032294;28;20502;-60
2022/02/08 03:33:37;;;;;;;27.65;13.48;;;;;;;2.21;76.70;97817.44;5032097;28;20103;-61
2022/02/08 03:36:09;;;;;;;26.90;12.90;;;;;;;2.19;77.47;97822.88;5016489;28;20084;-59
2022/02/08 03:38:42;;;;;;;25.15;12.98;;;;;;;2.28;77.04;97821.53;5031941;28;20083;-61
2022/02/08 03:41:11;;;;;;;26.48;12.82;;;;;;;2.37;76.64;97819.41;5000069;28;20050;-60
2022/02/08 03:43:44;;;;;;;26.13;12.77;;;;;;;2.31;76.68;97822.91;5033184;28;20503;-61
2022/02/08 03:46:16;;;;;;;28.70;13.93;;;;;;;2.38;76.10;97822.81;5032012;28;20045;-60
2022/02/08 03:48:43;;;;;;;25.55;12.73;;;;;;;2.43;76.41;97817.72;5015439;28;20041;-61
2022/02/08 03:51:15;;;;;;;26.00;13.07;;;;;;;2.36;75.86;97827.50;5031820;28;20050;-60
2022/02/08 03:53:47;;;;;;;25.52;13.00;;;;;;;2.39;75.92;97824.44;5016015;28;20053;-60
2022/02/08 03:56:16;;;;;;;24.70;11.67;;;;;;;2.38;75.76;97822.81;5015802;28;20045;-60
2022/02/08 03:58:43;;;;;;;24.65;11.63;;;;;;;2.31;75.85;97814.28;5040711;28;20661;-62
2022/02/08 04:06:40;;;;;;;20.98;11.23;;;;;;;2.33;75.94;97823.50;5030961;28;20060;-60
2022/02/08 04:09:08;;;;;;;27.35;12.98;;;;;;;2.43;76.41;97822.97;5051349;28;20041;-59
2022/02/08 04:11:38;;;;;;;24.27;11.90;;;;;;;2.41;75.79;97817.16;5052265;28;20170;-61
2022/02/08 04:17:02;;;;;;;24.15;12.00;;;;;;;2.45;75.68;97821.72;5052638;28;19963;-60
2022/02/08 04:19:37;;;;;;;24.77;11.45;;;;;;;2.34;76.18;97812.00;5051394;28;20073;-60
2022/02/08 04:43:11;;;;;;;24.55;11.45;;;;;;;2.30;75.90;97842.25;5032266;28;20060;-61
2022/02/08 04:48:26;;;;;;;21.70;11.52;;;;;;;2.29;75.59;97853.72;5032060;28;20044;-61
2022/02/08 04:50:58;;;;;;;23.45;11.90;;;;;;;2.33;76.06;97849.66;5032152;28;20487;-61
2022/02/08 04:53:33;;;;;;;27.23;12.60;;;;;;;2.40;75.90;97850.34;5030618;28;20053;-61
2022/02/08 04:56:10;;;;;;;22.80;12.27;;;;;;;2.35;75.61;97844.97;5032162;28;20092;-59
2022/02/08 04:58:47;;;;;;;25.25;11.50;;;;;;;2.28;75.87;97850.31;5030793;28;20037;-61
2022/02/08 05:01:28;;;;;;;25.27;12.23;;;;;;;2.26;75.40;97857.59;5030973;28;20507;-62
2022/02/08 05:44:43;;;;;;;17.98;9.40;;;;;;;2.38;70.36;97903.88;5041817;28;20037;-61
2022/02/08 05:47:10;;;;;;;13.77;6.70;;;;;;;2.33;68.53;97912.41;5047171;28;20041;-62
2022/02/08 05:49:52;;;;;;;11.48;6.57;;;;;;;2.29;67.76;97906.00;5031891;28;20095;-60
2022/02/08 05:54:52;;;;;;;11.90;6.43;;;;;;;2.30;68.34;97914.66;5043266;28;20478;-61
2022/02/08 05:57:18;;;;;;;11.60;5.85;;;;;;;2.36;68.17;97919.03;5049631;28;20088;-63
2022/02/08 05:59:44;;;;;;;13.45;7.55;;;;;;;2.31;68.73;97918.88;5050667;28;20049;-61
2022/02/08 06:02:10;;;;;;;11.93;7.00;;;;;;;2.32;69.09;97905.56;5046800;28;20460;-62
2022/02/08 06:04:55;;;;;;;16.00;6.88;;;;;;;2.22;68.67;97910.53;5048278;28;20057;-61
2022/02/08 06:07:24;;;;;;;16.08;7.70;;;;;;;2.28;69.10;97914.88;5031677;28;20463;-60
2022/02/08 06:09:54;;;;;;;16.75;8.45;;;;;;;2.30;69.86;97905.00;5046495;28;20045;-60
2022/02/08 06:12:23;;;;;;;12.05;6.40;;;;;;;2.39;69.33;97908.13;5048403;28;20429;-60
2022/02/08 06:15:00;;;;;;;11.93;7.28;;;;;;;2.34;69.01;97906.16;5015805;28;20144;-61
2022/02/08 06:17:31;;;;;;;12.02;6.50;;;;;;;2.38;68.93;97909.94;5015654;28;20045;-62
2022/02/08 06:19:56;;;;;;;15.55;7.22;;;;;;;2.44;69.12;97913.47;5044795;28;20098;-60
2022/02/08 06:22:23;;;;;;;11.88;7.10;;;;;;;2.46;68.83;97911.44;5031075;28;20110;-60
2022/02/08 06:24:49;;;;;;;13.07;6.93;;;;;;;2.49;67.45;97918.84;5048834;28;20053;-60
2022/02/08 06:27:15;;;;;;;12.50;6.40;;;;;;;2.48;67.90;97920.66;5021118;28;20038;-59
2022/02/08 06:29:41;;;;;;;14.88;6.10;;;;;;;2.46;67.19;97925.31;5013735;28;20455;-60
2022/02/08 06:32:07;;;;;;;13.50;7.03;;;;;;;2.46;67.19;97932.34;5028503;28;20151;-61
2022/02/08 06:34:33;;;;;;;10.68;6.35;;;;;;;2.42;66.96;97931.22;5031548;28;20049;-59
2022/02/08 06:37:09;;;;;;;10.48;5.90;;;;;;;2.41;66.63;97933.03;5031271;28;20053;-59
2022/02/08 06:39:36;;;;;;;11.50;5.95;;;;;;;2.43;67.10;97938.03;5049708;28;20369;-60
2022/02/08 06:42:03;;;;;;;8.50;5.55;;;;;;;2.48;67.18;97940.78;5046516;28;20555;-60
2022/02/08 06:44:29;;;;;;;11.85;5.75;;;;;;;2.57;66.53;97949.94;5050059;28;20049;-59
2022/02/08 06:46:55;;;;;;;11.27;5.90;;;;;;;2.49;66.23;97945.78;5048671;28;20113;-61
2022/02/08 06:49:21;;;;;;;10.32;5.82;;;;;;;2.49;67.65;97952.84;5050051;28;20053;-59
2022/02/08 06:51:47;;;;;;;13.95;5.88;;;;;;;2.48;67.20;97948.63;5050345;28;20463;-63
2022/02/08 06:54:12;;;;;;;8.63;5.22;;;;;;;2.54;65.97;97950.38;5051041;28;20053;-61
2022/02/08 06:56:38;;;;;;;11.25;5.25;;;;;;;2.52;66.74;97949.78;5047947;28;20120;-61
2022/02/08 06:59:07;;;;;;;10.07;4.88;;;;;;;2.57;66.81;97946.53;5051103;28;20044;-60
2022/02/08 07:01:33;;;;;;;10.95;5.10;;;;;;;2.55;65.84;97948.56;5049452;28;20110;-60
2022/02/08 07:04:05;;;;;;;9.45;5.07;;;;;;;2.61;66.43;97948.47;5051565;28;20041;-58
2022/02/08 07:06:31;;;;;;;8.88;5.00;;;;;;;2.70;66.01;97946.34;5050678;28;20037;-59
2022/02/08 07:08:57;;;;;;;7.70;4.72;;;;;;;2.69;66.18;97955.22;5051025;28;20396;-59
2022/02/08 07:11:23;;;;;;;8.10;4.40;;;;;;;2.69;65.77;97953.38;5049698;28;20068;-58
2022/02/08 07:13:49;;;;;;;10.95;4.38;;;;;;;2.75;65.61;97954.31;5052190;28;20056;-59
2022/02/08 07:16:17;;;;;;;6.82;4.40;;;;;;;2.66;65.65;97950.44;5047397;28;20418;-57
2022/02/08 07:18:43;;;;;;;9.55;4.88;;;;;;;2.76;65.63;97939.41;5002977;28;20156;-61
2022/02/08 07:21:09;;;;;;;8.70;4.32;;;;;;;2.79;65.13;97955.47;5049378;28;20064;-59
2022/02/08 07:23:36;;;;;;;10.20;4.45;;;;;;;2.77;64.38;97964.59;5048772;28;20044;-60
2022/02/08 07:26:01;;;;;;;7.63;4.28;;;;;;;2.87;64.93;97957.78;5047708;28;20051;-59
2022/02/08 07:28:27;;;;;;;9.13;4.53;;;;;;;2.78;64.93;97953.88;5050767;28;20041;-59
2022/02/08 07:31:01;;;;;;;8.93;4.80;;;;;;;2.72;65.64;97950.31;5049502;28;20045;-59
2022/02/08 07:33:27;;;;;;;8.55;4.60;;;;;;;2.66;65.12;97953.03;5050941;28;20563;-59
2022/02/08 07:36:03;;;;;;;8.88;4.70;;;;;;;2.68;66.18;97957.03;5051031;28;20044;-61
2022/02/08 07:38:35;;;;;;;9.13;4.85;;;;;;;2.76;65.39;97955.91;5031269;28;20045;-60
2022/02/08 07:43:27;;;;;;;8.35;4.45;;;;;;;2.90;64.24;97959.16;5028490;28;20775;-59
2022/02/08 07:46:06;;;;;;;8.70;4.57;;;;;;;2.88;64.39;97964.63;5014533;28;20107;-58
2022/02/08 07:48:31;;;;;;;7.00;4.72;;;;;;;2.85;64.11;97979.94;5031633;28;20049;-59
2022/02/08 07:50:57;;;;;;;7.72;4.50;;;;;;;2.89;64.22;97965.41;5014929;28;20522;-59
2022/02/08 07:53:27;;;;;;;9.30;4.50;;;;;;;2.91;65.36;97964.19;5010224;28;20419;-60
2022/02/08 07:55:54;;;;;;;7.18;4.30;;;;;;;2.96;65.15;97961.69;5040342;28;20040;-61
2022/02/08 07:58:20;;;;;;;10.70;4.97;;;;;;;3.04;64.93;97960.56;5052134;28;20383;-61
2022/02/08 08:00:45;;;;;;;7.05;3.90;;;;;;;3.10;64.28;97956.25;5042682;28;20060;-59
2022/02/08 08:03:11;;;;;;;9.27;4.32;;;;;;;3.03;63.57;97968.63;5029249;28;20430;-63
2022/02/08 08:05:37;;;;;;;7.63;4.20;;;;;;;2.88;64.52;97964.63;5025280;28;20571;-59
2022/02/08 08:08:03;;;;;;;8.57;5.13;;;;;;;3.02;65.63;97957.38;5010326;28;20121;-60
2022/02/08 08:10:31;;;;;;;7.07;4.07;;;;;;;3.08;63.28;97953.84;5023440;28;20084;-60
2022/02/08 08:12:58;;;;;;;9.07;4.60;;;;;;;3.22;64.62;97951.84;5031357;28;20029;-61
2022/02/08 08:15:46;;;;;;;6.13;4.47;;;;;;;3.13;63.16;97950.56;5046561;28;20041;-60
2022/02/08 08:18:24;;;;;;;9.48;3.92;;;;;;;3.17;62.87;97959.56;5047764;28;20037;-58
2022/02/08 08:20:50;;;;;;;7.38;4.80;;;;;;;3.36;63.65;97961.09;5011750;28;20065;-61
2022/02/08 08:23:15;;;;;;;6.13;3.97;;;;;;;3.40;63.70;97957.00;5010659;28;20500;-60
2022/02/08 08:25:41;;;;;;;9.68;4.22;;;;;;;3.47;62.64;97945.59;5011110;28;20103;-62
2022/02/08 08:28:09;;;;;;;8.00;4.78;;;;;;;3.49;63.17;97948.81;5011186;28;20044;-61
2022/02/08 08:30:35;;;;;;;9.63;4.60;;;;;;;3.44;62.81;97954.72;5010068;28;20518;-61
2022/02/08 08:33:02;;;;;;;7.18;4.22;;;;;;;3.44;62.05;97954.72;5009314;28;20042;-62
2022/02/08 08:35:28;;;;;;;8.82;4.55;;;;;;;3.47;62.43;97956.91;5006748;28;20072;-60
2022/02/08 08:38:01;;;;;;;8.38;4.05;;;;;;;3.53;61.73;97958.63;5008778;28;20061;-61
2022/02/08 08:40:58;;;;;;;6.72;3.60;;;;;;;3.58;61.10;97955.31;5007677;28;20103;-61
2022/02/08 08:51:16;;;;;;;7.10;4.32;;;;;;;4.03;61.44;97952.09;5009223;28;20099;-60
2022/02/08 08:53:43;;;;;;;6.53;4.15;;;;;;;3.95;60.66;97962.97;5009732;28;20096;-61
2022/02/08 08:56:09;;;;;;;8.63;4.60;;;;;;;3.94;60.67;97954.28;5010981;28;20038;-61
2022/02/08 08:58:36;;;;;;;12.63;4.65;;;;;;;3.95;60.24;97960.34;5011028;28;20037;-62
2022/02/08 09:01:03;;;;;;;6.70;4.60;;;;;;;4.17;62.06;97961.31;5010222;28;20635;-62
2022/02/08 09:03:29;;;;;;;9.15;4.85;;;;;;;4.27;59.63;97952.88;5009267;28;20076;-60
2022/02/08 09:05:55;;;;;;;8.93;4.95;;;;;;;4.25;66.99;97958.34;5007937;28;20085;-61
2022/02/08 09:08:23;;;;;;;7.63;4.50;;;;;;;4.29;70.14;97953.41;5025547;28;20096;-61
2022/02/08 09:10:57;;;;;;;9.25;4.95;;;;;;;4.13;64.67;97951.53;5008645;28;20100;-61
2022/02/08 09:13:33;;;;;;;10.35;4.43;;;;;;;4.28;67.89;97955.25;5008663;28;20046;-61
2022/02/08 09:16:07;;;;;;;9.73;4.50;;;;;;;4.19;63.15;97948.78;5008594;28;20069;-61
2022/02/08 09:29:06;;;;;;;6.28;4.25;;;;;;;4.40;61.21;97947.34;5026259;28;20135;-61
2022/02/08 09:31:33;;;;;;;7.57;4.57;;;;;;;4.41;61.37;97950.78;5033640;28;20067;-62
2022/02/08 09:33:59;;;;;;;9.50;4.43;;;;;;;4.50;59.14;97949.38;5028667;28;20076;-60
2022/02/08 09:36:25;;;;;;;9.55;5.07;;;;;;;4.37;60.39;97949.66;5021862;28;20069;-60
2022/02/08 09:38:55;;;;;;;8.60;4.70;;;;;;;4.32;60.36;97943.28;5026143;28;20049;-60
2022/02/08 09:41:23;;;;;;;6.68;4.55;;;;;;;4.40;60.14;97946.56;5029432;28;20479;-60
2022/02/08 09:44:11;;;;;;;9.18;4.50;;;;;;;4.62;59.70;97952.78;5027974;28;20053;-60
2022/02/08 09:46:41;;;;;;;9.10;4.18;;;;;;;4.70;59.27;97951.59;5008272;28;20041;-61
2022/02/08 09:49:07;;;;;;;11.38;4.00;;;;;;;4.51;59.20;97961.47;5026735;28;20048;-60
2022/02/08 09:51:34;;;;;;;7.72;5.13;;;;;;;4.43;60.54;97957.38;5022727;28;20218;-63
2022/02/08 09:54:03;;;;;;;7.47;4.20;;;;;;;4.41;60.28;97959.47;5022980;28;20067;-62
2022/02/08 09:56:28;;;;;;;7.68;4.60;;;;;;;4.41;60.43;97959.47;5030564;28;20577;-60
2022/02/08 09:58:54;;;;;;;7.90;4.30;;;;;;;4.31;60.87;97957.41;5049455;28;20127;-63
2022/02/08 10:01:23;;;;;;;6.28;3.92;;;;;;;4.26;60.89;97952.06;5041344;28;20494;-60
2022/02/08 10:03:56;;;;;;;11.52;4.78;;;;;;;4.17;60.68;97953.44;5032303;28;20544;-61
2022/02/08 10:06:24;;;;;;;8.00;4.45;;;;;;;4.15;61.66;97959.94;5027320;28;20053;-60
2022/02/08 10:09:04;;;;;;;8.90;4.20;;;;;;;4.30;62.36;97960.28;5032455;28;20502;-62
2022/02/08 10:11:44;;;;;;;7.85;4.50;;;;;;;4.32;60.84;97955.59;5033507;28;20439;-61
2022/02/08 10:22:19;;;;;;;8.23;4.40;;;;;;;4.48;61.39;97954.88;5043665;28;20143;-61
2022/02/08 10:24:49;;;;;;;6.15;4.20;;;;;;;4.51;61.94;97956.22;5032709;28;20598;-62
2022/02/08 10:27:26;;;;;;;7.82;4.25;;;;;;;4.39;61.38;97951.03;5030473;28;20510;-61
2022/02/08 10:38:07;;;;;;;5.30;3.60;;;;;;;4.25;62.01;97950.47;5049597;28;20048;-60
2022/02/08 10:40:38;;;;;;;6.55;4.38;;;;;;;4.36;61.92;97954.09;5049586;28;20124;-60
2022/02/08 10:43:09;;;;;;;8.00;4.10;;;;;;;4.46;62.33;97948.25;5033788;28;20037;-62
2022/02/08 10:45:37;;;;;;;6.35;4.05;;;;;;;4.55;61.63;97946.84;5049800;28;20103;-61
2022/02/08 10:48:04;;;;;;;10.70;4.60;;;;;;;4.46;61.74;97943.81;5049300;28;20038;-61
2022/02/08 10:50:33;;;;;;;10.50;4.43;;;;;;;4.53;61.79;97951.56;5052235;28;20082;-60
2022/02/08 10:53:01;;;;;;;7.10;4.05;;;;;;;4.37;61.29;97950.44;5051280;28;20419;-61
2022/02/08 10:55:40;;;;;;;6.90;4.47;;;;;;;4.33;61.91;97947.50;5050000;28;20570;-60
2022/02/08 11:00:44;;;;;;;6.72;4.00;;;;;;;4.24;62.13;97933.16;5050390;28;20065;-61
2022/02/08 11:03:16;;;;;;;10.98;4.03;;;;;;;4.17;62.50;97934.28;5050919;28;20045;-62
2022/02/08 11:06:02;;;;;;;5.97;4.75;;;;;;;4.19;63.41;97938.28;5051513;28;20049;-61
2022/02/08 11:09:34;;;;;;;8.25;3.97;;;;;;;4.30;62.38;97942.72;5050588;28;20095;-61
2022/02/08 11:12:23;;;;;;;6.22;4.03;;;;;;;4.27;62.18;97932.69;5052195;28;20087;-62
2022/02/08 11:20:36;;;;;;;9.23;4.82;;;;;;;4.45;62.40;97936.97;5013024;28;20100;-61
2022/02/08 11:23:12;;;;;;;7.00;4.45;;;;;;;4.40;61.55;97938.69;5011654;28;20052;-61
2022/02/08 11:25:44;;;;;;;7.60;4.60;;;;;;;4.37;62.95;97942.56;4994774;28;20072;-60
2022/02/08 11:28:22;;;;;;;6.20;4.18;;;;;;;4.26;62.12;97944.19;5009873;28;20053;-59
2022/02/08 11:31:22;;;;;;;6.40;4.45;;;;;;;4.36;63.20;97937.56;5010087;28;20133;-61
2022/02/08 11:34:06;;;;;;;10.48;4.45;;;;;;;4.51;61.79;97932.63;5010177;28;20046;-61
2022/02/08 11:59:21;;;;;;;7.50;4.63;;;;;;;4.16;63.77;97930.88;5030870;28;20419;-62
2022/02/08 12:09:30;;;;;;;;;;;;;;;4.27;62.57;97947.63;5030907;28;20103;-61
2022/02/08 12:32:05;;;;;;;5.78;3.63;;;;;;;3.76;63.87;97954.41;5030360;28;20578;-61
2022/02/08 12:48:32;;;;;;;6.78;3.60;;;;;;;3.75;63.88;97966.72;5036317;28;20095;-61
2022/02/08 12:57:04;;;;;;;5.88;3.45;;;;;;;3.73;63.46;97978.44;4994219;28;20057;-61
2022/02/08 12:59:46;;;;;;;3.03;2.67;;;;;;;3.67;64.23;97980.16;5016165;28;20115;-60
2022/02/08 13:02:40;;;;;;;4.35;2.78;;;;;;;3.64;63.34;97985.84;5032603;28;20467;-59
2022/02/08 13:18:04;;;;;;;5.40;3.13;;;;;;;3.19;65.18;97989.75;5025655;28;20041;-60
2022/02/08 14:06:16;;;;;;;3.42;2.80;;;;;;;2.72;66.96;97983.56;5046029;28;20061;-61
2022/02/08 14:24:14;;;;;;;4.97;2.85;;;;;;;2.73;66.49;97993.78;5032382;28;20479;-59
2022/02/08 14:29:41;;;;;;;4.95;2.80;;;;;;;2.41;67.98;97998.41;5026076;28;20049;-60
2022/02/08 14:32:19;;;;;;;3.53;2.50;;;;;;;2.48;68.66;98004.34;5026348;28;20041;-60
2022/02/08 14:48:52;;;;;;;7.03;3.63;;;;;;;2.48;69.15;98001.75;5031620;28;20491;-61
2022/02/08 15:09:58;;;;;;;4.05;2.80;;;;;;;1.60;72.46;98012.44;5029863;28;20037;-64
2022/02/08 15:12:30;;;;;;;6.55;3.58;;;;;;;1.57;72.84;98011.06;5036398;28;20140;-62
2022/02/08 15:15:20;;;;;;;6.15;2.95;;;;;;;1.69;73.15;98021.63;5029833;28;20045;-62
2022/02/08 15:17:45;;;;;;;6.30;3.08;;;;;;;1.84;72.15;98015.28;5034141;28;20128;-62
2022/02/08 15:20:12;;;;;;;4.20;2.67;;;;;;;1.86;72.09;98019.28;5029750;28;20147;-61
2022/02/08 15:22:39;;;;;;;4.22;2.85;;;;;;;1.79;72.16;98018.50;5029832;28;21536;-63
2022/02/08 15:25:10;;;;;;;4.95;2.88;;;;;;;1.80;72.15;98017.53;5039624;28;20128;-62
2022/02/08 15:27:38;;;;;;;5.13;3.03;;;;;;;1.86;72.35;98016.66;5048551;28;20124;-59
2022/02/08 15:30:06;;;;;;;7.93;2.67;;;;;;;1.95;72.23;98022.41;5031706;28;20053;-61
2022/02/08 15:32:34;;;;;;;4.72;2.85;;;;;;;1.94;71.98;98023.41;5034720;28;20045;-61
2022/02/08 15:35:01;;;;;;;8.60;3.08;;;;;;;1.96;72.63;98022.19;5015877;28;20501;-61
2022/02/08 15:37:31;;;;;;;4.40;2.65;;;;;;;2.01;71.96;98018.94;5033457;28;20121;-59
2022/02/08 15:40:00;;;;;;;3.58;2.40;;;;;;;1.98;72.20;98008.91;5031413;28;20628;-60
2022/02/08 15:42:31;;;;;;;4.15;3.00;;;;;;;1.94;71.90;98016.38;5031305;28;20041;-60
2022/02/08 15:45:00;;;;;;;3.00;2.60;;;;;;;1.90;72.02;98020.44;5031483;28;20076;-61
2022/02/08 15:47:28;;;;;;;4.70;2.83;;;;;;;1.83;72.87;98017.09;5013532;28;20045;-62
2022/02/08 15:50:01;;;;;;;14.35;9.27;;;;;;;1.87;72.58;98018.25;5028022;28;20037;-61
2022/02/08 15:53:02;;;;;;;4.40;2.70;;;;;;;1.87;71.48;98017.44;5012248;28;20041;-60
2022/02/08 15:55:47;;;;;;;6.35;2.83;;;;;;;1.81;72.82;98024.34;5028709;28;20048;-61
2022/02/08 16:01:03;;;;;;;4.70;2.90;;;;;;;1.73;72.36;98032.44;5035711;28;20045;-61
2022/02/08 16:09:15;;;;;;;4.88;3.03;;;;;;;1.55;73.31;98033.97;5031362;28;20115;-60
2022/02/08 16:11:51;;;;;;;4.95;2.53;;;;;;;1.58;73.56;98030.94;5010091;28;20534;-61
2022/02/08 16:14:34;;;;;;;3.80;2.60;;;;;;;1.59;72.79;98024.72;5012611;28;20099;-61
2022/02/08 16:17:13;;;;;;;6.60;2.78;;;;;;;1.57;73.30;98029.34;5029310;28;20037;-62
2022/02/08 16:25:24;;;;;;;4.20;2.50;;;;;;;1.55;73.25;98028.75;5031153;28;20068;-61
2022/02/08 16:31:06;;;;;;;3.88;2.55;;;;;;;1.48;73.35;98025.41;5031136;28;20414;-61
2022/02/08 16:56:54;;;;;;;9.57;3.75;;;;;;;1.11;72.91;98013.97;5044232;28;20053;-61
2022/02/08 16:59:27;;;;;;;4.85;3.10;;;;;;;1.08;73.89;98009.97;5024479;28;20140;-59
2022/02/08 17:01:56;;;;;;;4.03;2.90;;;;;;;1.23;73.59;98017.50;5035814;28;20057;-60
2022/02/08 17:04:21;;;;;;;7.68;3.22;;;;;;;1.32;73.51;98016.28;5031570;28;20049;-61
2022/02/08 17:06:47;;;;;;;4.32;3.33;;;;;;;1.37;72.79;98018.25;5028447;28;20517;-61
2022/02/08 17:09:18;;;;;;;5.05;2.53;;;;;;;1.42;72.61;98017.63;5026488;28;20075;-62
2022/02/08 17:14:20;;;;;;;3.17;2.50;;;;;;;1.23;72.62;98007.06;5006942;28;20027;-62
2022/02/08 17:46:22;;;;;;;5.30;2.90;;;;;;;1.26;72.23;98017.09;5005030;28;20478;-61
2022/02/08 17:48:50;;;;;;;4.68;2.80;;;;;;;1.27;72.38;98007.47;5022107;28;20507;-62
2022/02/08 17:51:16;;;;;;;3.33;2.45;;;;;;;1.20;71.98;98012.72;5008412;28;20041;-62
2022/02/08 17:53:42;;;;;;;3.95;2.63;;;;;;;1.23;71.96;98006.28;5017235;28;20046;-63
2022/02/08 17:56:08;;;;;;;3.08;2.28;;;;;;;1.25;72.35;98004.28;5005573;28;20050;-64
2022/02/08 17:58:35;;;;;;;2.80;2.50;;;;;;;1.19;73.05;98002.50;5018220;28;20095;-60
2022/02/08 18:01:01;;;;;;;3.75;2.72;;;;;;;1.11;72.93;98008.75;5025205;28;20077;-62
2022/02/08 18:03:27;;;;;;;3.38;2.30;;;;;;;1.11;72.81;97999.13;5025398;28;20088;-64
2022/02/08 18:05:52;;;;;;;3.00;2.20;;;;;;;1.18;72.65;98003.50;5024839;28;20045;-62
2022/02/08 18:08:21;;;;;;;3.22;2.22;;;;;;;1.20;73.14;98004.09;5024905;28;21029;-62
2022/02/08 18:10:55;;;;;;;3.65;2.30;;;;;;;1.13;72.22;98004.94;5037462;28;20080;-62
2022/02/08 18:13:22;;;;;;;2.92;2.33;;;;;;;1.05;72.67;98013.00;5024902;28;20063;-64
2022/02/08 18:15:48;;;;;;;4.82;2.75;;;;;;;1.05;72.23;98007.78;5030315;28;20038;-64
2022/02/08 18:18:27;;;;;;;2.13;1.88;;;;;;;0.99;72.27;98002.63;5029505;28;20411;-63
2022/02/08 18:20:57;;;;;;;2.65;2.00;;;;;;;0.81;72.52;98008.53;5036402;28;20122;-61
2022/02/08 18:55:49;;;;;;;3.05;2.25;;;;;;;0.11;72.93;98000.53;5044139;28;20095;-63
2022/02/08 19:23:50;;;;;;;2.95;2.13;;;;;;;0.24;71.88;98008.34;5034847;28;20045;-61